Time;durP1;ratioP1;P1;durP2;ratioP2;P2;SDS_P1;SDS_P2;PMS_P1;PMS_P2;Temp;Humidity;BMP_temperature;BMP_pressure;BME280_temperature;BME280_humidity;BME280_pressure;Samples;Min_cycle;Max_cycle;Signal;HPM_P1;HPM_P2
2022/06/03 00:01:33;;;;;;;4.37;2.90;;;13.00;99.90;;;;;;4969747;28;20215;-81
2022/06/03 00:04:17;;;;;;;7.57;3.40;;;13.00;99.90;;;;;;4990542;28;20219;-82
2022/06/03 00:06:57;;;;;;;4.63;3.00;;;13.00;99.90;;;;;;4977546;28;20209;-81
2022/06/03 00:09:57;;;;;;;3.07;2.50;;;12.90;99.90;;;;;;4971162;28;20216;-82
2022/06/03 00:12:55;;;;;;;4.07;2.80;;;12.90;99.90;;;;;;4957918;28;20613;-81
2022/06/03 00:15:51;;;;;;;4.37;2.93;;;12.90;99.90;;;;;;4988463;28;20302;-83
2022/06/03 00:18:49;;;;;;;5.53;3.40;;;12.90;99.90;;;;;;4988687;28;20207;-79
2022/06/03 00:21:30;;;;;;;6.33;2.97;;;12.80;99.90;;;;;;4980465;28;20886;-82
2022/06/03 00:24:11;;;;;;;4.63;2.60;;;12.80;99.90;;;;;;4985030;28;20646;-80
2022/06/03 00:27:03;;;;;;;4.33;3.10;;;12.90;99.90;;;;;;4986052;28;20204;-80
2022/06/03 00:29:54;;;;;;;3.67;3.07;;;12.80;99.90;;;;;;4978010;28;20215;-87
2022/06/03 00:32:52;;;;;;;4.83;2.90;;;12.80;99.90;;;;;;4978480;28;20611;-80
2022/06/03 00:35:43;;;;;;;4.93;3.17;;;12.80;99.90;;;;;;4965997;28;20215;-84
2022/06/03 00:38:26;;;;;;;5.90;2.80;;;12.80;99.90;;;;;;4978022;28;20741;-80
2022/06/03 00:41:06;;;;;;;5.90;3.27;;;12.80;99.90;;;;;;4969351;28;20316;-79
2022/06/03 00:43:49;;;;;;;3.60;3.17;;;12.80;99.90;;;;;;4970859;28;20200;-81
2022/06/03 00:46:35;;;;;;;4.63;3.63;;;12.70;99.90;;;;;;4988578;28;20231;-80
2022/06/03 00:49:23;;;;;;;3.67;3.07;;;12.60;99.90;;;;;;4985328;28;20323;-81
2022/06/03 00:52:19;;;;;;;3.30;2.80;;;12.60;99.90;;;;;;4970355;28;20215;-80
2022/06/03 00:55:10;;;;;;;3.60;3.23;;;12.60;99.90;;;;;;4970656;28;20192;-81
2022/06/03 00:58:10;;;;;;;5.20;3.10;;;12.60;99.90;;;;;;4969254;28;20209;-83
2022/06/03 01:00:40;;;;;;;3.40;3.10;;;12.50;99.90;;;;;;4976311;28;20215;-84
2022/06/03 01:03:25;;;;;;;3.20;2.70;;;12.50;99.90;;;;;;4987837;28;20262;-83
2022/06/03 01:06:19;;;;;;;4.23;2.90;;;12.50;99.90;;;;;;4990038;28;20215;-80
2022/06/03 01:08:59;;;;;;;5.33;3.03;;;12.50;99.90;;;;;;4990700;28;20203;-83
2022/06/03 01:11:44;;;;;;;4.77;2.90;;;12.50;99.90;;;;;;4990450;28;20216;-82
2022/06/03 01:14:23;;;;;;;5.33;3.43;;;12.40;99.90;;;;;;4990221;28;20618;-79
2022/06/03 01:16:59;;;;;;;5.53;3.70;;;12.40;99.90;;;;;;4990881;28;20202;-84
2022/06/03 01:19:42;;;;;;;5.43;3.20;;;12.40;99.90;;;;;;4989941;28;20302;-81
2022/06/03 01:22:33;;;;;;;4.67;3.20;;;12.30;99.90;;;;;;4989920;28;20291;-84
2022/06/03 01:25:30;;;;;;;3.20;2.90;;;12.30;99.90;;;;;;4973030;28;20240;-82
2022/06/03 01:28:32;;;;;;;3.60;2.80;;;12.40;99.90;;;;;;4970345;28;20208;-81
2022/06/03 01:31:30;;;;;;;4.97;3.70;;;12.40;99.90;;;;;;4968879;28;20331;-79
2022/06/03 01:34:12;;;;;;;3.77;3.43;;;12.30;99.90;;;;;;4969022;28;20237;-79
2022/06/03 01:37:08;;;;;;;5.03;3.47;;;12.30;99.90;;;;;;4970332;28;20217;-82
2022/06/03 01:40:14;;;;;;;3.80;3.50;;;12.20;99.90;;;;;;4983486;28;20219;-85
2022/06/03 01:43:09;;;;;;;4.13;2.93;;;12.20;99.90;;;;;;4989742;28;20206;-85
2022/06/03 01:45:55;;;;;;;3.77;3.00;;;12.20;99.90;;;;;;4989041;28;20200;-81
2022/06/03 01:48:59;;;;;;;3.73;3.33;;;12.20;99.90;;;;;;4989966;28;20222;-84
2022/06/03 01:52:06;;;;;;;4.13;2.87;;;12.20;99.90;;;;;;4989444;28;20211;-81
2022/06/03 01:55:07;;;;;;;4.13;2.80;;;12.20;99.90;;;;;;4987501;28;20247;-79
2022/06/03 01:57:55;;;;;;;4.70;3.10;;;12.20;99.90;;;;;;4987534;28;20210;-79
2022/06/03 02:00:32;;;;;;;3.23;2.83;;;12.20;99.90;;;;;;4967586;28;20216;-80
2022/06/03 02:03:25;;;;;;;3.30;3.00;;;12.10;99.90;;;;;;4968404;28;20660;-82
2022/06/03 02:06:38;;;;;;;2.90;2.67;;;12.10;99.90;;;;;;4967678;28;20883;-79
2022/06/03 02:09:20;;;;;;;4.33;3.20;;;12.10;99.90;;;;;;4969094;28;20206;-80
2022/06/03 02:12:04;;;;;;;4.87;3.60;;;12.10;99.90;;;;;;4970152;28;20600;-83
2022/06/03 02:15:13;;;;;;;2.77;2.40;;;12.10;99.90;;;;;;4959960;28;20323;-87
2022/06/03 02:18:05;;;;;;;4.27;2.97;;;12.10;99.90;;;;;;4973745;28;20671;-83
2022/06/03 02:21:05;;;;;;;4.43;3.30;;;12.10;99.90;;;;;;4986721;28;20215;-86
2022/06/03 02:24:04;;;;;;;5.87;3.30;;;12.10;99.90;;;;;;4982873;28;20196;-88
2022/06/03 02:27:18;;;;;;;4.83;3.33;;;12.00;99.90;;;;;;4990173;28;20218;-80
2022/06/03 02:30:28;;;;;;;5.90;3.17;;;12.10;99.90;;;;;;4972530;28;20200;-85
2022/06/03 02:33:30;;;;;;;3.47;3.13;;;12.10;99.90;;;;;;4987684;28;20539;-82
2022/06/03 02:36:46;;;;;;;4.97;3.53;;;12.10;99.90;;;;;;4967715;28;20266;-80
2022/06/03 02:39:38;;;;;;;5.03;3.33;;;12.10;99.90;;;;;;4967990;28;20904;-80
2022/06/03 02:42:22;;;;;;;4.90;3.10;;;12.20;99.90;;;;;;4967884;28;20205;-83
2022/06/03 02:45:21;;;;;;;4.60;3.73;;;12.20;99.90;;;;;;4968184;28;20239;-79
2022/06/03 02:48:24;;;;;;;5.80;3.73;;;12.20;99.90;;;;;;4968401;28;20231;-82
2022/06/03 02:51:19;;;;;;;5.53;3.37;;;12.20;99.90;;;;;;4976199;28;20243;-79
2022/06/03 02:54:16;;;;;;;7.07;3.20;;;12.20;99.90;;;;;;4988077;28;20820;-81
2022/06/03 02:56:59;;;;;;;5.50;3.07;;;12.20;99.90;;;;;;4982101;28;20211;-84
2022/06/03 03:00:09;;;;;;;4.70;3.73;;;12.20;99.90;;;;;;4969225;28;20200;-81
2022/06/03 03:02:51;;;;;;;9.30;3.90;;;12.10;99.90;;;;;;4937259;28;20227;-81
2022/06/03 03:05:33;;;;;;;5.13;3.67;;;12.20;99.90;;;;;;4969601;28;20552;-80
2022/06/03 03:08:32;;;;;;;3.87;3.03;;;12.10;99.90;;;;;;4986227;28;20859;-82
2022/06/03 03:11:16;;;;;;;4.17;3.23;;;12.10;99.90;;;;;;4985127;28;20295;-79
2022/06/03 03:14:28;;;;;;;5.33;3.70;;;12.10;99.90;;;;;;4974210;28;20236;-80
2022/06/03 03:17:24;;;;;;;4.57;3.50;;;12.10;99.90;;;;;;4967575;28;20204;-79
2022/06/03 03:20:22;;;;;;;3.87;3.40;;;12.10;99.90;;;;;;4966717;28;20197;-79
2022/06/03 03:23:16;;;;;;;5.57;3.57;;;12.10;99.90;;;;;;4967928;28;20219;-80
2022/06/03 03:25:59;;;;;;;6.77;4.03;;;12.10;99.90;;;;;;4968081;28;20312;-82
2022/06/03 03:28:50;;;;;;;9.57;4.30;;;12.00;99.90;;;;;;4975645;28;20264;-83
2022/06/03 03:31:45;;;;;;;6.43;3.67;;;12.10;99.90;;;;;;4989287;28;20204;-84
2022/06/03 03:34:23;;;;;;;4.43;3.90;;;12.10;99.90;;;;;;4991409;28;20334;-83
2022/06/03 03:37:22;;;;;;;5.37;4.10;;;12.10;99.90;;;;;;4993256;28;20223;-83
2022/06/03 03:40:33;;;;;;;4.43;3.73;;;12.10;99.90;;;;;;4974888;28;20528;-82
2022/06/03 03:43:29;;;;;;;9.93;4.10;;;12.10;99.90;;;;;;4986329;28;20216;-81
2022/06/03 03:46:36;;;;;;;6.27;4.40;;;12.10;99.90;;;;;;4980785;28;20204;-85
2022/06/03 03:49:47;;;;;;;4.40;4.00;;;12.20;99.90;;;;;;4977748;28;20973;-85
2022/06/03 03:52:45;;;;;;;6.27;3.80;;;12.20;99.90;;;;;;4948354;28;20598;-85
2022/06/03 03:55:42;;;;;;;4.93;4.30;;;12.20;99.90;;;;;;4986272;28;20526;-87
2022/06/03 03:58:40;;;;;;;8.43;4.43;;;12.30;99.90;;;;;;4990129;28;20231;-82
2022/06/03 04:01:45;;;;;;;7.97;4.10;;;12.40;99.90;;;;;;4992488;28;20588;-81
2022/06/03 04:04:43;;;;;;;4.30;3.50;;;12.40;99.90;;;;;;4992559;28;20192;-82
2022/06/03 04:07:34;;;;;;;6.43;3.77;;;12.50;99.90;;;;;;4992710;28;20236;-85
2022/06/03 04:10:30;;;;;;;5.80;3.60;;;12.50;99.90;;;;;;4994140;28;20623;-81
2022/06/03 04:13:18;;;;;;;4.93;4.20;;;12.60;99.90;;;;;;4970859;28;20504;-80
2022/06/03 04:16:28;;;;;;;7.50;4.27;;;12.70;99.90;;;;;;4973089;28;20299;-81
2022/06/03 04:19:34;;;;;;;6.53;3.67;;;12.70;99.90;;;;;;4973128;28;20605;-85
2022/06/03 04:22:25;;;;;;;7.23;4.33;;;12.70;99.90;;;;;;4977481;28;20212;-82
2022/06/03 04:25:32;;;;;;;4.23;3.50;;;12.70;99.90;;;;;;4981635;28;20296;-80
2022/06/03 04:28:31;;;;;;;5.53;3.73;;;12.70;99.90;;;;;;5001593;28;20199;-81
2022/06/03 04:31:53;;;;;;;7.90;3.97;;;12.80;99.90;;;;;;4975838;28;20279;-81
2022/06/03 04:35:01;;;;;;;6.07;3.27;;;12.80;99.90;;;;;;4980300;28;20921;-84
2022/06/03 04:38:15;;;;;;;6.07;4.20;;;12.80;99.90;;;;;;4970792;28;20888;-82
2022/06/03 04:41:20;;;;;;;6.17;3.40;;;12.80;99.90;;;;;;4972424;28;20208;-83
2022/06/03 04:44:47;;;;;;;5.33;3.50;;;12.70;99.90;;;;;;4952250;28;20517;-86
2022/06/03 04:48:04;;;;;;;6.70;3.90;;;12.80;99.90;;;;;;4965594;28;20722;-81
2022/06/03 04:51:24;;;;;;;7.40;3.70;;;12.80;99.90;;;;;;4972114;28;20243;-83
2022/06/03 04:54:25;;;;;;;5.07;4.20;;;12.80;99.90;;;;;;4961501;28;20229;-82
2022/06/03 04:57:28;;;;;;;6.47;3.60;;;12.80;99.90;;;;;;4971715;28;20205;-85
2022/06/03 05:00:17;;;;;;;7.50;3.87;;;13.10;99.90;;;;;;4960988;28;20219;-81
2022/06/03 05:03:20;;;;;;;6.83;3.80;;;13.50;99.90;;;;;;4989138;28;20218;-82
2022/06/03 05:06:17;;;;;;;6.10;3.80;;;14.00;99.90;;;;;;4991609;28;20279;-82
2022/06/03 05:09:23;;;;;;;6.77;3.50;;;14.60;99.90;;;;;;4989650;28;20222;-80
2022/06/03 05:12:28;;;;;;;3.20;2.60;;;15.10;99.90;;;;;;4989965;28;20302;-80
2022/06/03 05:15:58;;;;;;;6.47;2.97;;;15.70;99.90;;;;;;4989903;28;20243;-82
2022/06/03 05:19:04;;;;;;;4.43;3.00;;;16.00;99.90;;;;;;4990304;28;20294;-84
2022/06/03 05:22:08;;;;;;;4.87;3.13;;;16.40;99.90;;;;;;4974111;28;20212;-84
2022/06/03 05:25:21;;;;;;;6.40;3.45;;;16.80;99.90;;;;;;4969435;28;20222;-80
2022/06/03 05:28:19;;;;;;;4.32;2.80;;;17.00;99.90;;;;;;4971248;28;20292;-83
2022/06/03 05:31:13;;;;;;;7.05;3.78;;;17.40;99.90;;;;;;4985865;28;20203;-81
2022/06/03 05:34:12;;;;;;;4.43;3.20;;;17.60;99.90;;;;;;4977137;28;20217;-82
2022/06/03 05:37:05;;;;;;;3.63;3.00;;;17.40;99.90;;;;;;4947574;28;20952;-83
2022/06/03 05:40:08;;;;;;;3.83;2.50;;;17.70;99.90;;;;;;4988893;28;20635;-81
2022/06/03 05:43:04;;;;;;;4.50;2.83;;;18.20;99.90;;;;;;4971636;28;20513;-77
2022/06/03 05:46:13;;;;;;;4.22;2.97;;;18.40;99.90;;;;;;4968090;28;20576;-79
2022/06/03 05:49:02;;;;;;;3.13;2.75;;;18.50;99.90;;;;;;4968309;28;20203;-79
2022/06/03 05:51:50;;;;;;;4.15;3.47;;;18.50;99.90;;;;;;4968638;28;20609;-82
2022/06/03 05:54:30;;;;;;;4.53;2.78;;;18.30;99.90;;;;;;4985693;28;20318;-80
2022/06/03 05:57:07;;;;;;;4.82;2.97;;;18.40;99.90;;;;;;4988964;28;20281;-82
2022/06/03 06:00:03;;;;;;;4.13;3.13;;;18.50;99.90;;;;;;4989094;28;20200;-80
2022/06/03 06:02:39;;;;;;;4.22;2.67;;;18.80;99.90;;;;;;4990016;28;20285;-83
2022/06/03 06:05:26;;;;;;;4.53;3.00;;;19.30;99.90;;;;;;4988119;28;20211;-80
2022/06/03 06:08:04;;;;;;;4.65;3.08;;;19.40;99.90;;;;;;4988856;28;20207;-79
2022/06/03 06:10:41;;;;;;;5.82;3.13;;;19.50;99.90;;;;;;4988802;28;20218;-79
2022/06/03 06:13:47;;;;;;;10.20;3.45;;;19.40;99.90;;;;;;4988513;28;20219;-81
2022/06/03 06:16:19;;;;;;;4.75;3.17;;;19.80;99.90;;;;;;4987938;28;20231;-81
2022/06/03 06:18:54;;;;;;;4.15;2.50;;;19.80;99.90;;;;;;4989133;28;20208;-81
2022/06/03 06:21:56;;;;;;;3.33;2.95;;;20.10;99.90;;;;;;4989006;28;20254;-80
2022/06/03 06:24:46;;;;;;;5.60;3.00;;;20.10;99.90;;;;;;4966825;28;20243;-80
2022/06/03 06:27:43;;;;;;;3.72;3.05;;;19.90;99.90;;;;;;4988151;28;20635;-82
2022/06/03 06:30:21;;;;;;;3.70;2.85;;;19.90;99.90;;;;;;4989104;28;20606;-82
2022/06/03 06:33:15;;;;;;;3.78;3.15;;;19.80;99.90;;;;;;4988741;28;20318;-80
2022/06/03 06:36:30;;;;;;;4.72;2.63;;;20.00;99.90;;;;;;4969878;28;20226;-79
2022/06/03 06:39:10;;;;;;;4.30;2.83;;;20.10;99.90;;;;;;4969714;28;20323;-83
2022/06/03 06:41:51;;;;;;;4.68;2.75;;;20.10;99.90;;;;;;4981457;28;20253;-81
2022/06/03 06:44:32;;;;;;;5.28;2.90;;;20.50;99.90;;;;;;4988805;28;20196;-80
2022/06/03 06:47:11;;;;;;;4.60;3.45;;;20.70;99.90;;;;;;4988784;28;20189;-84
2022/06/03 06:49:43;;;;;;;5.07;2.85;;;21.10;99.90;;;;;;4968730;28;20307;-83
2022/06/03 06:52:43;;;;;;;2.67;2.35;;;21.30;99.90;;;;;;4969559;28;20216;-81
2022/06/03 06:55:19;;;;;;;3.05;2.60;;;21.40;99.90;;;;;;4967424;28;20243;-80
2022/06/03 06:57:49;;;;;;;3.28;2.55;;;21.70;99.90;;;;;;4967516;28;20205;-80
2022/06/03 07:00:22;;;;;;;2.80;2.55;;;21.80;99.90;;;;;;4967481;28;20204;-80
2022/06/03 07:02:53;;;;;;;4.50;2.70;;;21.70;99.90;;;;;;4971340;28;20229;-82
2022/06/03 07:05:26;;;;;;;3.08;2.78;;;21.70;99.90;;;;;;4972061;28;20799;-81
2022/06/03 07:07:58;;;;;;;3.20;2.75;;;21.60;99.90;;;;;;4972600;28;20208;-78
2022/06/03 07:10:28;;;;;;;3.28;2.30;;;21.50;99.90;;;;;;4972458;28;20216;-80
2022/06/03 07:13:08;;;;;;;3.22;2.75;;;21.30;99.90;;;;;;4972317;28;20489;-82
2022/06/03 07:15:53;;;;;;;5.18;2.72;;;21.50;99.90;;;;;;4972096;28;20247;-82
2022/06/03 07:21:17;;;;;;;5.53;2.75;;;21.40;99.90;;;;;;4971817;28;20196;-80
2022/06/03 07:23:49;;;;;;;3.08;2.78;;;21.50;99.90;;;;;;4972294;28;20322;-84
2022/06/03 07:26:28;;;;;;;2.85;2.22;;;21.60;99.90;;;;;;4971989;28;20662;-80
2022/06/03 07:29:05;;;;;;;4.43;2.80;;;21.80;99.90;;;;;;4971582;28;20204;-81
2022/06/03 07:31:37;;;;;;;4.22;3.20;;;21.80;99.90;;;;;;4971792;28;20210;-79
2022/06/03 07:34:13;;;;;;;4.50;2.67;;;21.90;99.90;;;;;;4972550;28;20223;-82
2022/06/03 07:36:47;;;;;;;4.65;2.90;;;22.00;99.90;;;;;;4971030;28;20292;-81
2022/06/03 07:39:33;;;;;;;7.78;3.88;;;22.00;99.90;;;;;;4971222;28;20183;-82
2022/06/03 07:42:08;;;;;;;4.45;2.95;;;21.90;99.90;;;;;;4970866;28;20614;-81
2022/06/03 07:44:45;;;;;;;6.57;3.25;;;22.10;99.90;;;;;;4970416;28;20236;-79
2022/06/03 07:47:15;;;;;;;3.30;2.45;;;22.00;99.90;;;;;;4971339;28;20294;-81
2022/06/03 07:49:55;;;;;;;2.85;2.42;;;22.00;99.90;;;;;;4971364;28;20627;-79
2022/06/03 07:52:29;;;;;;;3.75;2.83;;;22.20;99.90;;;;;;4971136;28;20226;-82
2022/06/03 07:54:57;;;;;;;2.85;2.50;;;22.30;99.90;;;;;;4971068;28;20228;-80
2022/06/03 07:57:27;;;;;;;4.30;2.55;;;22.50;99.90;;;;;;4971636;28;20291;-80
2022/06/03 07:59:59;;;;;;;3.25;2.63;;;22.80;99.90;;;;;;4975116;28;20204;-81
2022/06/03 08:02:27;;;;;;;3.72;2.67;;;22.90;99.90;;;;;;4991077;28;20196;-81
2022/06/03 08:05:05;;;;;;;3.03;2.80;;;22.90;99.90;;;;;;4982585;28;20289;-80
2022/06/03 08:13:07;;;;;;;3.00;2.70;;;23.60;99.90;;;;;;4979473;28;20210;-80
2022/06/03 08:15:37;;;;;;;3.60;2.38;;;23.20;99.90;;;;;;4989505;28;20243;-82
2022/06/03 08:18:06;;;;;;;4.07;2.88;;;23.40;99.90;;;;;;4990571;28;20220;-81
2022/06/03 08:20:36;;;;;;;3.13;2.60;;;23.30;99.90;;;;;;4972157;28;20223;-80
2022/06/03 08:23:05;;;;;;;5.70;2.80;;;23.80;99.90;;;;;;4969588;28;20609;-82
2022/06/03 08:25:42;;;;;;;5.97;2.88;;;24.10;99.90;;;;;;4969353;28;20903;-81
2022/06/03 08:28:14;;;;;;;3.72;2.50;;;24.40;99.90;;;;;;4970758;28;20612;-82
2022/06/03 08:30:45;;;;;;;4.60;3.05;;;24.60;99.90;;;;;;4970683;28;20524;-82
2022/06/03 08:33:15;;;;;;;4.50;2.83;;;23.90;99.90;;;;;;4969043;28;20541;-82
2022/06/03 08:35:47;;;;;;;3.38;3.08;;;23.60;99.90;;;;;;4969785;28;20235;-81
2022/06/03 08:38:18;;;;;;;5.13;3.00;;;23.50;99.90;;;;;;4970133;28;20221;-85
2022/06/03 08:40:54;;;;;;;4.97;2.70;;;23.60;99.90;;;;;;4970145;28;21007;-84
2022/06/03 08:43:29;;;;;;;4.90;3.30;;;23.50;99.90;;;;;;4970578;28;20216;-80
2022/06/03 08:46:08;;;;;;;5.15;2.75;;;23.40;99.90;;;;;;4970669;28;20200;-82
2022/06/03 08:48:39;;;;;;;3.22;2.90;;;23.50;99.90;;;;;;4969555;28;20193;-82
2022/06/03 08:51:12;;;;;;;4.55;3.25;;;23.80;99.90;;;;;;4969332;28;20590;-84
2022/06/03 08:53:45;;;;;;;4.80;3.30;;;23.60;99.90;;;;;;4970300;28;20209;-82
2022/06/03 08:56:15;;;;;;;5.15;3.47;;;23.80;99.90;;;;;;4969196;28;20703;-83
2022/06/03 08:58:49;;;;;;;6.10;3.17;;;23.70;99.90;;;;;;4968881;28;20204;-82
2022/06/03 09:01:27;;;;;;;5.55;3.50;;;23.60;99.90;;;;;;4968149;28;20980;-81
2022/06/03 09:04:04;;;;;;;3.72;2.85;;;23.30;99.90;;;;;;4969958;28;20219;-82
2022/06/03 09:06:44;;;;;;;4.05;2.88;;;23.30;99.90;;;;;;4969321;28;20315;-81
2022/06/03 09:09:20;;;;;;;4.75;3.13;;;23.90;99.90;;;;;;4968236;28;20613;-80
2022/06/03 09:11:52;;;;;;;4.10;3.40;;;24.00;99.90;;;;;;4978613;28;20909;-80
2022/06/03 09:14:24;;;;;;;3.70;2.90;;;23.80;99.90;;;;;;4986038;28;20248;-82
2022/06/03 09:16:58;;;;;;;4.20;3.08;;;23.80;99.90;;;;;;4968518;28;20248;-82
2022/06/03 09:19:29;;;;;;;6.70;3.28;;;23.60;99.90;;;;;;4970189;28;20216;-82
2022/06/03 09:21:58;;;;;;;3.58;2.70;;;23.20;99.90;;;;;;4968984;28;20277;-81
2022/06/03 09:24:29;;;;;;;2.90;2.60;;;23.20;99.90;;;;;;4968065;28;20216;-81
2022/06/03 09:26:58;;;;;;;4.13;2.75;;;23.60;99.90;;;;;;4969410;28;20211;-81
2022/06/03 09:29:26;;;;;;;4.22;2.75;;;23.40;99.90;;;;;;4968565;28;20201;-80
2022/06/03 09:31:57;;;;;;;2.72;2.53;;;23.50;99.90;;;;;;4986956;28;20208;-82
2022/06/03 09:34:34;;;;;;;5.10;3.05;;;23.60;99.90;;;;;;4988400;28;20200;-81
2022/06/03 09:37:02;;;;;;;3.90;3.50;;;23.50;99.90;;;;;;4968288;28;20663;-80
2022/06/03 09:39:29;;;;;;;3.63;3.25;;;23.70;99.90;;;;;;4969559;28;20312;-82
2022/06/03 09:41:57;;;;;;;4.53;2.75;;;23.80;99.90;;;;;;4973908;28;20303;-80
2022/06/03 09:44:26;;;;;;;3.70;3.10;;;24.00;99.90;;;;;;4967425;28;20201;-80
2022/06/03 09:46:59;;;;;;;4.13;2.80;;;23.60;99.90;;;;;;4967582;28;20208;-78
2022/06/03 09:49:27;;;;;;;3.33;3.00;;;23.80;99.90;;;;;;4968356;28;20290;-79
2022/06/03 09:51:57;;;;;;;3.20;3.00;;;23.70;99.90;;;;;;4966729;28;20208;-78
2022/06/03 09:54:26;;;;;;;3.35;3.05;;;23.80;99.90;;;;;;4968849;28;20876;-78
2022/06/03 09:56:56;;;;;;;3.70;3.28;;;24.20;99.90;;;;;;4968313;28;20228;-81
2022/06/03 09:59:26;;;;;;;5.35;3.00;;;24.20;99.90;;;;;;4967967;28;20621;-79
2022/06/03 10:01:54;;;;;;;4.30;3.50;;;24.30;99.90;;;;;;4968212;28;20234;-77
2022/06/03 10:04:24;;;;;;;2.97;2.78;;;23.90;99.90;;;;;;4967830;28;20310;-80
2022/06/03 10:06:52;;;;;;;5.32;3.65;;;24.00;99.90;;;;;;4972725;28;20204;-80
2022/06/03 10:17:42;;;;;;;5.35;3.45;;;24.20;99.90;;;;;;4976639;28;20566;-79
2022/06/03 10:20:10;;;;;;;3.75;3.45;;;24.20;99.90;;;;;;4993298;28;20200;-80
2022/06/03 10:22:36;;;;;;;6.78;3.83;;;24.10;99.90;;;;;;4994411;28;20235;-80
2022/06/03 10:25:04;;;;;;;3.70;2.60;;;24.10;99.90;;;;;;5000085;28;20216;-81
2022/06/03 10:27:31;;;;;;;4.03;2.90;;;24.20;99.90;;;;;;5048435;23;20298;-80
2022/06/03 10:30:00;;;;;;;6.20;3.17;;;24.50;99.90;;;;;;5045812;28;20265;-79
2022/06/03 10:32:27;;;;;;;6.13;3.65;;;24.80;99.90;;;;;;5037360;28;20654;-82
2022/06/03 10:35:11;;;;;;;7.35;3.40;;;24.70;99.90;;;;;;5033447;28;20206;-82
2022/06/03 10:37:47;;;;;;;5.57;3.00;;;24.90;99.90;;;;;;5033922;28;20195;-82
2022/06/03 10:40:14;;;;;;;5.95;3.20;;;24.90;99.90;;;;;;5028472;28;20206;-81
2022/06/03 10:42:45;;;;;;;3.50;3.08;;;24.50;99.90;;;;;;5030039;28;20206;-77
2022/06/03 10:45:12;;;;;;;3.65;3.35;;;24.40;99.90;;;;;;5027899;28;20248;-78
2022/06/03 10:47:43;;;;;;;3.80;3.15;;;24.00;99.90;;;;;;5023448;28;20210;-83
2022/06/03 10:50:26;;;;;;;4.50;3.78;;;23.90;99.90;;;;;;5025588;28;20210;-78
2022/06/03 11:01:34;;;;;;;3.95;3.22;;;24.80;99.90;;;;;;5025094;28;20558;-79
2022/06/03 11:04:02;;;;;;;2.92;2.70;;;24.70;99.90;;;;;;5024748;28;20207;-78
2022/06/03 11:06:36;;;;;;;4.75;3.25;;;24.50;99.90;;;;;;5025890;28;20202;-82
2022/06/03 11:09:06;;;;;;;3.65;3.15;;;24.40;99.90;;;;;;5025105;28;20272;-80
2022/06/03 11:11:43;;;;;;;4.43;3.20;;;24.40;99.90;;;;;;5026629;28;20218;-80
2022/06/03 11:14:28;;;;;;;4.18;3.08;;;24.20;99.90;;;;;;5023497;28;20210;-79
2022/06/03 11:17:01;;;;;;;3.25;2.95;;;24.50;99.90;;;;;;5023479;28;20646;-81
2022/06/03 11:19:32;;;;;;;5.75;3.15;;;24.80;99.90;;;;;;5025761;28;20758;-78
2022/06/03 11:22:21;;;;;;;3.40;3.10;;;25.00;99.90;;;;;;5024680;28;20233;-77
2022/06/03 11:24:56;;;;;;;3.92;2.72;;;25.30;99.90;;;;;;5008147;22;20231;-79
2022/06/03 11:27:28;;;;;;;4.00;3.20;;;25.10;99.90;;;;;;4986170;28;20213;-79
2022/06/03 11:30:01;;;;;;;4.57;2.90;;;25.00;99.90;;;;;;4983384;28;20220;-80
2022/06/03 11:32:29;;;;;;;5.35;3.03;;;25.00;99.90;;;;;;4982371;28;20307;-79
2022/06/03 11:35:01;;;;;;;2.78;2.58;;;24.80;99.90;;;;;;4984100;28;20212;-80
2022/06/03 11:37:34;;;;;;;4.80;2.80;;;24.80;99.90;;;;;;4984688;28;20732;-79
2022/06/03 11:40:05;;;;;;;3.38;2.63;;;24.70;99.90;;;;;;4984313;28;20212;-79
2022/06/03 11:42:39;;;;;;;5.40;2.47;;;24.80;99.90;;;;;;4985952;28;20604;-79
2022/06/03 11:45:13;;;;;;;5.93;3.08;;;25.00;99.90;;;;;;4985611;28;20231;-79
2022/06/03 11:47:49;;;;;;;2.90;2.60;;;25.00;99.90;;;;;;4985424;28;20208;-83
2022/06/03 11:50:20;;;;;;;5.85;2.47;;;25.10;99.90;;;;;;4982778;28;20220;-80
2022/06/03 11:52:51;;;;;;;3.38;2.58;;;25.20;99.90;;;;;;4982289;28;20212;-81
2022/06/03 11:55:20;;;;;;;4.45;2.50;;;25.40;99.90;;;;;;4984690;28;20239;-78
2022/06/03 11:57:56;;;;;;;3.15;2.33;;;25.40;99.90;;;;;;4985406;28;20236;-77
2022/06/03 12:00:25;;;;;;;2.28;2.10;;;25.10;99.90;;;;;;4979074;28;20277;-79
2022/06/03 12:03:08;;;;;;;3.65;2.15;;;25.20;99.90;;;;;;4986081;28;20219;-79
2022/06/03 12:05:41;;;;;;;3.20;2.00;;;25.50;99.90;;;;;;4982485;28;20628;-81
2022/06/03 12:08:16;;;;;;;4.05;2.50;;;25.40;99.90;;;;;;4986763;28;20215;-82
2022/06/03 12:10:51;;;;;;;2.08;1.90;;;25.60;99.90;;;;;;4985908;28;20218;-82
2022/06/03 12:13:26;;;;;;;3.38;2.00;;;25.60;99.90;;;;;;4983612;28;20342;-82
2022/06/03 12:16:04;;;;;;;11.60;3.25;;;25.60;99.90;;;;;;4986539;28;20864;-82
2022/06/03 12:18:57;;;;;;;3.10;2.03;;;25.70;99.90;;;;;;4984702;28;20234;-79
2022/06/03 12:22:14;;;;;;;4.80;2.53;;;25.50;99.90;;;;;;4985136;28;20215;-84
2022/06/03 12:24:48;;;;;;;4.25;2.50;;;25.50;99.90;;;;;;4984788;28;20319;-86
2022/06/03 12:27:29;;;;;;;3.13;1.95;;;25.50;99.90;;;;;;4986047;28;20212;-83
2022/06/03 12:30:42;;;;;;;2.95;1.92;;;25.60;99.90;;;;;;4986295;28;20315;-81
2022/06/03 12:33:21;;;;;;;3.92;1.92;;;25.60;99.90;;;;;;4982641;28;20274;-84
2022/06/03 12:36:06;;;;;;;4.55;2.08;;;25.50;99.90;;;;;;4983213;28;20516;-83
2022/06/03 12:38:43;;;;;;;1.98;1.77;;;25.70;99.90;;;;;;4985264;28;20216;-81
2022/06/03 12:41:34;;;;;;;5.28;2.20;;;25.70;99.90;;;;;;4986315;28;20215;-81
2022/06/03 12:44:01;;;;;;;6.78;2.25;;;25.70;99.90;;;;;;4979604;28;20306;-81
2022/06/03 12:46:41;;;;;;;3.70;1.88;;;25.70;99.90;;;;;;4986051;28;20215;-84
2022/06/03 12:49:39;;;;;;;2.75;1.90;;;25.60;99.90;;;;;;4980648;28;20220;-83
2022/06/03 12:52:11;;;;;;;5.57;2.30;;;25.50;99.90;;;;;;4985670;28;20316;-82
2022/06/03 12:54:47;;;;;;;3.25;2.13;;;25.40;99.90;;;;;;4985513;28;20232;-84
2022/06/03 12:57:24;;;;;;;2.55;1.70;;;25.20;99.90;;;;;;4987966;28;20235;-84
2022/06/03 12:59:55;;;;;;;4.57;2.13;;;25.20;99.90;;;;;;4985968;28;20286;-82
2022/06/03 13:02:25;;;;;;;2.60;1.85;;;25.30;99.90;;;;;;4988533;28;20239;-82
2022/06/03 13:05:28;;;;;;;2.95;1.83;;;25.30;99.90;;;;;;4977922;28;20254;-83
2022/06/03 13:08:02;;;;;;;2.88;2.00;;;25.40;99.90;;;;;;4969220;28;20662;-85
2022/06/03 13:10:45;;;;;;;6.05;2.58;;;25.60;99.90;;;;;;4967839;28;20211;-80
2022/06/03 13:14:07;;;;;;;1.70;1.40;;;25.70;99.90;;;;;;4966510;28;20981;-80
2022/06/03 13:16:46;;;;;;;2.35;1.88;;;25.70;99.90;;;;;;4967843;28;20224;-80
2022/06/03 13:19:50;;;;;;;2.78;1.60;;;25.90;99.90;;;;;;4967814;28;20247;-80
2022/06/03 13:22:34;;;;;;;1.80;1.70;;;26.00;99.90;;;;;;4968832;28;20220;-83
2022/06/03 13:25:24;;;;;;;3.78;1.67;;;25.80;99.90;;;;;;4956735;28;20232;-86
2022/06/03 13:28:29;;;;;;;3.88;1.98;;;25.90;99.90;;;;;;4969843;28;20204;-88
2022/06/03 13:31:19;;;;;;;3.20;1.77;;;25.80;99.90;;;;;;4982527;28;20638;-81
2022/06/03 13:34:23;;;;;;;2.80;1.40;;;25.60;99.90;;;;;;4989387;28;20210;-84
2022/06/03 13:37:12;;;;;;;2.65;1.65;;;25.40;99.90;;;;;;4989295;28;20311;-81
2022/06/03 13:40:16;;;;;;;2.28;1.70;;;25.60;99.90;;;;;;4974809;28;20240;-80
2022/06/03 13:43:20;;;;;;;5.13;1.60;;;25.60;99.90;;;;;;4969587;28;20239;-81
2022/06/03 13:46:06;;;;;;;2.95;1.30;;;25.70;99.90;;;;;;4984940;28;20287;-82
2022/06/03 13:49:08;;;;;;;1.58;1.40;;;25.80;99.90;;;;;;4969342;28;20274;-82
2022/06/03 13:52:08;;;;;;;1.98;1.70;;;25.60;99.90;;;;;;4937399;28;20314;-82
2022/06/03 13:54:50;;;;;;;2.13;1.33;;;25.50;99.90;;;;;;4968180;28;20212;-80
2022/06/03 13:57:28;;;;;;;2.42;1.50;;;25.50;99.90;;;;;;4967093;28;20709;-80
2022/06/03 14:00:17;;;;;;;2.25;1.70;;;25.80;99.90;;;;;;4966919;28;20616;-79
2022/06/03 14:02:45;;;;;;;2.92;1.60;;;25.80;99.90;;;;;;4967715;28;20208;-82
2022/06/03 14:05:16;;;;;;;1.98;1.63;;;25.80;99.90;;;;;;4965920;28;21257;-82
2022/06/03 14:07:54;;;;;;;2.15;1.27;;;25.90;99.90;;;;;;4966605;28;20212;-80
2022/06/03 14:10:24;;;;;;;2.15;1.48;;;25.80;99.90;;;;;;4966839;28;20193;-81
2022/06/03 14:13:01;;;;;;;1.60;1.50;;;25.80;99.90;;;;;;4967531;28;20565;-79
2022/06/03 14:15:37;;;;;;;2.28;1.80;;;25.70;99.90;;;;;;4967134;28;20258;-82
2022/06/03 14:18:04;;;;;;;3.25;1.65;;;25.50;99.90;;;;;;4967387;28;20255;-81
2022/06/03 14:20:36;;;;;;;3.90;1.20;;;25.60;99.90;;;;;;4967559;28;20487;-85
2022/06/03 14:23:15;;;;;;;2.40;1.42;;;25.90;99.90;;;;;;4978763;28;20337;-79
2022/06/03 14:25:51;;;;;;;3.35;1.55;;;25.70;99.90;;;;;;4986160;28;20797;-82
2022/06/03 14:28:26;;;;;;;2.92;1.27;;;25.40;99.90;;;;;;4974798;28;20211;-81
2022/06/03 14:30:59;;;;;;;2.13;1.40;;;25.40;99.90;;;;;;4966422;28;20200;-78
2022/06/03 14:33:28;;;;;;;1.88;1.40;;;25.50;99.90;;;;;;4965443;28;20211;-79
2022/06/03 14:36:00;;;;;;;3.63;1.42;;;25.50;99.90;;;;;;4966466;28;20295;-79
2022/06/03 14:38:34;;;;;;;2.38;1.45;;;25.50;99.90;;;;;;4967612;28;20549;-81
2022/06/03 14:41:01;;;;;;;2.10;1.58;;;25.60;99.90;;;;;;4969004;28;20209;-80
2022/06/03 14:43:32;;;;;;;3.03;1.58;;;25.50;99.90;;;;;;4967625;28;20218;-79